sensor_id;sensor_type;location;lat;lon;timestamp;temperature;humidity
19342;DHT22;9807;48.258;12.690;2023-01-31T07:11:04;3.10;99.90
19342;DHT22;9807;48.258;12.690;2023-01-31T07:13:40;3.10;99.90
19342;DHT22;9807;48.258;12.690;2023-01-31T07:16:06;2.90;99.90
19342;DHT22;9807;48.258;12.690;2023-01-31T07:18:39;3.10;99.90
19342;DHT22;9807;48.258;12.690;2023-01-31T07:21:10;3.10;99.90
19342;DHT22;9807;48.258;12.690;2023-01-31T07:23:40;3.10;99.90
19342;DHT22;9807;48.258;12.690;2023-01-31T07:26:06;3.20;99.90
19342;DHT22;9807;48.258;12.690;2023-01-31T07:28:37;3.20;99.90
19342;DHT22;9807;48.258;12.690;2023-01-31T07:31:09;3.30;99.90
19342;DHT22;9807;48.258;12.690;2023-01-31T07:33:42;3.10;99.90
19342;DHT22;9807;48.258;12.690;2023-01-31T07:36:14;3.00;99.90
19342;DHT22;9807;48.258;12.690;2023-01-31T07:38:43;3.20;99.90
19342;DHT22;9807;48.258;12.690;2023-01-31T07:41:11;3.00;99.90
19342;DHT22;9807;48.258;12.690;2023-01-31T07:43:40;3.20;99.90
19342;DHT22;9807;48.258;12.690;2023-01-31T07:46:07;3.20;99.90
19342;DHT22;9807;48.258;12.690;2023-01-31T07:48:36;3.20;99.90
19342;DHT22;9807;48.258;12.690;2023-01-31T07:51:02;3.20;99.90
19342;DHT22;9807;48.258;12.690;2023-01-31T07:53:31;3.20;99.90
19342;DHT22;9807;48.258;12.690;2023-01-31T07:58:36;3.20;99.90
19342;DHT22;9807;48.258;12.690;2023-01-31T08:01:02;3.20;99.90
19342;DHT22;9807;48.258;12.690;2023-01-31T08:03:49;3.30;99.90
19342;DHT22;9807;48.258;12.690;2023-01-31T08:06:14;3.40;99.90
19342;DHT22;9807;48.258;12.690;2023-01-31T08:08:44;3.30;99.90
19342;DHT22;9807;48.258;12.690;2023-01-31T08:11:10;3.30;99.90
19342;DHT22;9807;48.258;12.690;2023-01-31T08:13:37;3.30;99.90
19342;DHT22;9807;48.258;12.690;2023-01-31T08:16:05;3.40;99.90
19342;DHT22;9807;48.258;12.690;2023-01-31T08:22:08;3.40;99.90
19342;DHT22;9807;48.258;12.690;2023-01-31T08:29:02;3.50;99.90
19342;DHT22;9807;48.258;12.690;2023-01-31T08:35:32;3.50;99.90
19342;DHT22;9807;48.258;12.690;2023-01-31T08:38:39;3.50;99.90
19342;DHT22;9807;48.258;12.690;2023-01-31T09:28:03;3.70;99.90
19342;DHT22;9807;48.258;12.690;2023-01-31T09:35:09;3.60;99.90
19342;DHT22;9807;48.258;12.690;2023-01-31T09:38:37;3.80;99.90
19342;DHT22;9807;48.258;12.690;2023-01-31T09:42:22;3.80;99.90
19342;DHT22;9807;48.258;12.690;2023-01-31T09:48:47;4.00;99.90
19342;DHT22;9807;48.258;12.690;2023-01-31T09:51:41;4.00;99.90
19342;DHT22;9807;48.258;12.690;2023-01-31T09:54:28;4.30;99.90
19342;DHT22;9807;48.258;12.690;2023-01-31T10:03:51;4.50;99.90
19342;DHT22;9807;48.258;12.690;2023-01-31T10:06:32;4.50;99.90
19342;DHT22;9807;48.258;12.690;2023-01-31T10:09:07;4.40;99.90
19342;DHT22;9807;48.258;12.690;2023-01-31T10:12:24;4.50;99.90
19342;DHT22;9807;48.258;12.690;2023-01-31T10:15:01;4.60;99.90
19342;DHT22;9807;48.258;12.690;2023-01-31T10:20:53;4.60;99.90
19342;DHT22;9807;48.258;12.690;2023-01-31T10:26:26;4.70;99.90
19342;DHT22;9807;48.258;12.690;2023-01-31T10:34:29;4.90;99.90
19342;DHT22;9807;48.258;12.690;2023-01-31T10:37:35;4.80;99.90
19342;DHT22;9807;48.258;12.690;2023-01-31T10:40:19;4.80;99.90
19342;DHT22;9807;48.258;12.690;2023-01-31T10:42:58;4.60;99.90
19342;DHT22;9807;48.258;12.690;2023-01-31T10:45:30;4.60;99.90
19342;DHT22;9807;48.258;12.690;2023-01-31T10:48:17;4.50;99.90
19342;DHT22;9807;48.258;12.690;2023-01-31T10:56:44;4.80;99.90
19342;DHT22;9807;48.258;12.690;2023-01-31T10:59:41;4.80;99.90
19342;DHT22;9807;48.258;12.690;2023-01-31T11:02:21;4.70;99.90
19342;DHT22;9807;48.258;12.690;2023-01-31T11:05:01;4.60;99.90
19342;DHT22;9807;48.258;12.690;2023-01-31T11:07:49;4.50;99.90
19342;DHT22;9807;48.258;12.690;2023-01-31T11:10:33;4.50;99.90
19342;DHT22;9807;48.258;12.690;2023-01-31T11:13:02;4.70;99.90
19342;DHT22;9807;48.258;12.690;2023-01-31T11:15:41;4.80;99.90
19342;DHT22;9807;48.258;12.690;2023-01-31T11:18:45;4.80;99.90
19342;DHT22;9807;48.258;12.690;2023-01-31T11:21:28;5.00;99.90
19342;DHT22;9807;48.258;12.690;2023-01-31T11:24:23;4.90;99.90
19342;DHT22;9807;48.258;12.690;2023-01-31T11:29:22;4.90;99.90
19342;DHT22;9807;48.258;12.690;2023-01-31T11:31:53;4.90;99.90
19342;DHT22;9807;48.258;12.690;2023-01-31T11:34:22;4.90;99.90
19342;DHT22;9807;48.258;12.690;2023-01-31T11:36:51;4.90;99.90
19342;DHT22;9807;48.258;12.690;2023-01-31T11:39:28;5.00;99.90
19342;DHT22;9807;48.258;12.690;2023-01-31T11:42:12;4.90;99.90
19342;DHT22;9807;48.258;12.690;2023-01-31T11:45:15;4.80;99.90
19342;DHT22;9807;48.258;12.690;2023-01-31T11:50:43;4.80;99.90
19342;DHT22;9807;48.258;12.690;2023-01-31T11:56:27;4.80;99.90
19342;DHT22;9807;48.258;12.690;2023-01-31T11:59:04;4.80;99.90
19342;DHT22;9807;48.258;12.690;2023-01-31T12:04:41;4.70;99.90
19342;DHT22;9807;48.258;12.690;2023-01-31T12:07:49;4.90;99.90
19342;DHT22;9807;48.258;12.690;2023-01-31T12:10:41;4.80;99.90
19342;DHT22;9807;48.258;12.690;2023-01-31T12:13:17;4.90;99.90
19342;DHT22;9807;48.258;12.690;2023-01-31T12:16:04;4.80;99.90
19342;DHT22;9807;48.258;12.690;2023-01-31T12:19:02;4.90;99.90
19342;DHT22;9807;48.258;12.690;2023-01-31T12:22:04;5.00;99.90
19342;DHT22;9807;48.258;12.690;2023-01-31T12:24:57;5.00;99.90
19342;DHT22;9807;48.258;12.690;2023-01-31T12:31:17;5.00;99.90
19342;DHT22;9807;48.258;12.690;2023-01-31T12:34:06;5.00;99.90
19342;DHT22;9807;48.258;12.690;2023-01-31T12:48:13;4.90;99.90
19342;DHT22;9807;48.258;12.690;2023-01-31T12:51:20;4.90;99.90
19342;DHT22;9807;48.258;12.690;2023-01-31T13:00:01;4.90;99.90
19342;DHT22;9807;48.258;12.690;2023-01-31T13:08:01;4.80;99.90
19342;DHT22;9807;48.258;12.690;2023-01-31T13:10:42;4.90;99.90
19342;DHT22;9807;48.258;12.690;2023-01-31T13:16:40;4.80;99.90
19342;DHT22;9807;48.258;12.690;2023-01-31T13:19:33;4.90;99.90
19342;DHT22;9807;48.258;12.690;2023-01-31T13:22:07;4.90;99.90
19342;DHT22;9807;48.258;12.690;2023-01-31T13:24:45;5.10;99.90
19342;DHT22;9807;48.258;12.690;2023-01-31T13:27:32;4.90;99.90
19342;DHT22;9807;48.258;12.690;2023-01-31T13:30:16;4.70;99.90
19342;DHT22;9807;48.258;12.690;2023-01-31T13:32:48;4.90;99.90
19342;DHT22;9807;48.258;12.690;2023-01-31T13:35:34;5.00;99.90
19342;DHT22;9807;48.258;12.690;2023-01-31T13:38:07;5.00;99.90
19342;DHT22;9807;48.258;12.690;2023-01-31T13:40:46;4.90;99.90
19342;DHT22;9807;48.258;12.690;2023-01-31T13:43:14;4.70;99.90
19342;DHT22;9807;48.258;12.690;2023-01-31T13:46:18;4.80;99.90
19342;DHT22;9807;48.258;12.690;2023-01-31T13:48:54;4.90;99.90
19342;DHT22;9807;48.258;12.690;2023-01-31T13:51:45;4.90;99.90
19342;DHT22;9807;48.258;12.690;2023-01-31T13:54:27;4.80;99.90
19342;DHT22;9807;48.258;12.690;2023-01-31T13:56:59;4.60;99.90
19342;DHT22;9807;48.258;12.690;2023-01-31T13:59:33;4.80;99.90
19342;DHT22;9807;48.258;12.690;2023-01-31T14:02:04;4.70;99.90
19342;DHT22;9807;48.258;12.690;2023-01-31T14:04:46;4.70;99.90
19342;DHT22;9807;48.258;12.690;2023-01-31T14:07:16;4.60;99.90
19342;DHT22;9807;48.258;12.690;2023-01-31T14:14:47;4.60;99.90
19342;DHT22;9807;48.258;12.690;2023-01-31T14:20:26;4.70;99.90
19342;DHT22;9807;48.258;12.690;2023-01-31T14:23:31;4.70;99.90
19342;DHT22;9807;48.258;12.690;2023-01-31T14:26:30;4.80;99.90
19342;DHT22;9807;48.258;12.690;2023-01-31T14:28:56;4.80;99.90
19342;DHT22;9807;48.258;12.690;2023-01-31T14:31:25;4.80;99.90
19342;DHT22;9807;48.258;12.690;2023-01-31T14:33:52;4.80;99.90
19342;DHT22;9807;48.258;12.690;2023-01-31T14:42:37;4.70;99.90
19342;DHT22;9807;48.258;12.690;2023-01-31T14:56:43;4.50;99.90
19342;DHT22;9807;48.258;12.690;2023-01-31T14:59:32;4.50;99.90
19342;DHT22;9807;48.258;12.690;2023-01-31T15:01:59;4.50;99.90
19342;DHT22;9807;48.258;12.690;2023-01-31T15:04:27;4.50;99.90
19342;DHT22;9807;48.258;12.690;2023-01-31T15:06:56;4.50;99.90
19342;DHT22;9807;48.258;12.690;2023-01-31T15:11:54;4.50;99.90
19342;DHT22;9807;48.258;12.690;2023-01-31T15:14:40;4.50;99.90
19342;DHT22;9807;48.258;12.690;2023-01-31T15:17:30;4.40;99.90
19342;DHT22;9807;48.258;12.690;2023-01-31T15:20:22;4.50;99.90
19342;DHT22;9807;48.258;12.690;2023-01-31T15:23:02;4.40;99.90
19342;DHT22;9807;48.258;12.690;2023-01-31T15:25:41;4.40;99.90
19342;DHT22;9807;48.258;12.690;2023-01-31T15:28:20;4.50;99.90
19342;DHT22;9807;48.258;12.690;2023-01-31T15:30:50;4.60;99.90
19342;DHT22;9807;48.258;12.690;2023-01-31T15:36:24;4.60;99.90
19342;DHT22;9807;48.258;12.690;2023-01-31T15:38:57;4.40;99.90
19342;DHT22;9807;48.258;12.690;2023-01-31T15:41:41;4.50;99.90
19342;DHT22;9807;48.258;12.690;2023-01-31T15:44:14;4.50;99.90
19342;DHT22;9807;48.258;12.690;2023-01-31T15:46:42;4.50;99.90
19342;DHT22;9807;48.258;12.690;2023-01-31T15:49:32;4.50;99.90
19342;DHT22;9807;48.258;12.690;2023-01-31T15:52:11;4.50;99.90
19342;DHT22;9807;48.258;12.690;2023-01-31T15:54:39;4.50;99.90
19342;DHT22;9807;48.258;12.690;2023-01-31T15:57:14;4.50;99.90
19342;DHT22;9807;48.258;12.690;2023-01-31T15:59:46;4.50;99.90
19342;DHT22;9807;48.258;12.690;2023-01-31T16:02:30;4.50;99.90
19342;DHT22;9807;48.258;12.690;2023-01-31T16:04:58;4.50;99.90
19342;DHT22;9807;48.258;12.690;2023-01-31T16:07:30;4.50;99.90
19342;DHT22;9807;48.258;12.690;2023-01-31T16:10:02;4.50;99.90
19342;DHT22;9807;48.258;12.690;2023-01-31T16:12:32;4.50;99.90
19342;DHT22;9807;48.258;12.690;2023-01-31T16:15:06;4.50;99.90
19342;DHT22;9807;48.258;12.690;2023-01-31T16:17:33;4.50;99.90
19342;DHT22;9807;48.258;12.690;2023-01-31T16:20:00;4.40;99.90
19342;DHT22;9807;48.258;12.690;2023-01-31T16:22:31;4.50;99.90
19342;DHT22;9807;48.258;12.690;2023-01-31T16:25:02;4.50;99.90
19342;DHT22;9807;48.258;12.690;2023-01-31T16:27:40;4.50;99.90
19342;DHT22;9807;48.258;12.690;2023-01-31T16:30:52;4.50;99.90
19342;DHT22;9807;48.258;12.690;2023-01-31T16:33:50;4.50;99.90
19342;DHT22;9807;48.258;12.690;2023-01-31T16:36:55;4.40;99.90
19342;DHT22;9807;48.258;12.690;2023-01-31T16:39:48;4.40;99.90
19342;DHT22;9807;48.258;12.690;2023-01-31T16:46:01;4.40;99.90
19342;DHT22;9807;48.258;12.690;2023-01-31T16:49:04;4.40;99.90
19342;DHT22;9807;48.258;12.690;2023-01-31T16:51:42;4.30;99.90
19342;DHT22;9807;48.258;12.690;2023-01-31T16:54:53;4.40;99.90
19342;DHT22;9807;48.258;12.690;2023-01-31T16:58:43;4.40;99.90
19342;DHT22;9807;48.258;12.690;2023-01-31T17:01:30;4.40;99.90
19342;DHT22;9807;48.258;12.690;2023-01-31T17:04:37;4.40;99.90
19342;DHT22;9807;48.258;12.690;2023-01-31T17:07:29;4.40;99.90
19342;DHT22;9807;48.258;12.690;2023-01-31T17:13:32;4.30;99.90
19342;DHT22;9807;48.258;12.690;2023-01-31T17:16:15;4.30;99.90
19342;DHT22;9807;48.258;12.690;2023-01-31T17:18:51;4.30;99.90
19342;DHT22;9807;48.258;12.690;2023-01-31T17:21:21;4.40;99.90
19342;DHT22;9807;48.258;12.690;2023-01-31T17:23:53;4.40;99.90
19342;DHT22;9807;48.258;12.690;2023-01-31T17:26:25;4.50;99.90
19342;DHT22;9807;48.258;12.690;2023-01-31T17:28:54;4.40;99.90
19342;DHT22;9807;48.258;12.690;2023-01-31T17:31:24;4.30;99.90
19342;DHT22;9807;48.258;12.690;2023-01-31T17:33:50;4.40;99.90
19342;DHT22;9807;48.258;12.690;2023-01-31T17:36:29;4.40;99.90
19342;DHT22;9807;48.258;12.690;2023-01-31T17:38:56;4.40;99.90
19342;DHT22;9807;48.258;12.690;2023-01-31T17:41:22;4.50;99.90
19342;DHT22;9807;48.258;12.690;2023-01-31T17:43:59;4.50;99.90
19342;DHT22;9807;48.258;12.690;2023-01-31T17:46:38;4.50;99.90
19342;DHT22;9807;48.258;12.690;2023-01-31T17:49:15;4.50;99.90
19342;DHT22;9807;48.258;12.690;2023-01-31T17:51:50;4.60;99.90
19342;DHT22;9807;48.258;12.690;2023-01-31T17:54:25;4.60;99.90
19342;DHT22;9807;48.258;12.690;2023-01-31T17:56:58;4.60;99.90
19342;DHT22;9807;48.258;12.690;2023-01-31T17:59:27;4.40;99.90
19342;DHT22;9807;48.258;12.690;2023-01-31T18:01:52;4.60;99.90
19342;DHT22;9807;48.258;12.690;2023-01-31T18:04:38;4.50;99.90
19342;DHT22;9807;48.258;12.690;2023-01-31T18:07:17;4.50;99.90
19342;DHT22;9807;48.258;12.690;2023-01-31T18:09:52;4.40;99.90
19342;DHT22;9807;48.258;12.690;2023-01-31T18:12:25;4.50;99.90
19342;DHT22;9807;48.258;12.690;2023-01-31T18:17:40;4.60;99.90
19342;DHT22;9807;48.258;12.690;2023-01-31T18:20:12;4.60;99.90
19342;DHT22;9807;48.258;12.690;2023-01-31T18:22:41;4.70;99.90
19342;DHT22;9807;48.258;12.690;2023-01-31T18:25:31;4.70;99.90
19342;DHT22;9807;48.258;12.690;2023-01-31T18:34:04;4.70;99.90
19342;DHT22;9807;48.258;12.690;2023-01-31T18:36:40;4.70;99.90
19342;DHT22;9807;48.258;12.690;2023-01-31T18:39:08;4.70;99.90
19342;DHT22;9807;48.258;12.690;2023-01-31T18:41:39;4.70;99.90
19342;DHT22;9807;48.258;12.690;2023-01-31T18:44:07;4.70;99.90
19342;DHT22;9807;48.258;12.690;2023-01-31T18:46:33;4.70;99.90
19342;DHT22;9807;48.258;12.690;2023-01-31T18:48:59;4.80;99.90
19342;DHT22;9807;48.258;12.690;2023-01-31T18:51:28;4.80;99.90
19342;DHT22;9807;48.258;12.690;2023-01-31T18:53:54;4.80;99.90
19342;DHT22;9807;48.258;12.690;2023-01-31T18:56:26;4.70;99.90
19342;DHT22;9807;48.258;12.690;2023-01-31T18:58:52;4.70;99.90
19342;DHT22;9807;48.258;12.690;2023-01-31T19:01:26;4.70;99.90
19342;DHT22;9807;48.258;12.690;2023-01-31T19:03:57;4.60;99.90
19342;DHT22;9807;48.258;12.690;2023-01-31T19:06:34;4.70;99.90
19342;DHT22;9807;48.258;12.690;2023-01-31T19:09:02;4.70;99.90
19342;DHT22;9807;48.258;12.690;2023-01-31T19:11:31;4.50;99.90
19342;DHT22;9807;48.258;12.690;2023-01-31T19:13:58;4.60;99.90
19342;DHT22;9807;48.258;12.690;2023-01-31T19:16:44;4.60;99.90
19342;DHT22;9807;48.258;12.690;2023-01-31T19:19:21;4.60;99.90
19342;DHT22;9807;48.258;12.690;2023-01-31T19:21:52;4.50;99.90
19342;DHT22;9807;48.258;12.690;2023-01-31T19:24:23;4.50;99.90
19342;DHT22;9807;48.258;12.690;2023-01-31T19:26:49;4.50;99.90
19342;DHT22;9807;48.258;12.690;2023-01-31T19:29:24;4.50;99.90
19342;DHT22;9807;48.258;12.690;2023-01-31T19:31:53;4.50;99.90
19342;DHT22;9807;48.258;12.690;2023-01-31T19:34:19;4.50;99.90
19342;DHT22;9807;48.258;12.690;2023-01-31T19:36:54;4.40;99.90
19342;DHT22;9807;48.258;12.690;2023-01-31T19:39:24;4.30;99.90
19342;DHT22;9807;48.258;12.690;2023-01-31T19:41:50;4.40;99.90
19342;DHT22;9807;48.258;12.690;2023-01-31T19:44:21;4.40;99.90
19342;DHT22;9807;48.258;12.690;2023-01-31T19:46:55;4.40;99.90
19342;DHT22;9807;48.258;12.690;2023-01-31T19:49:26;4.40;99.90
19342;DHT22;9807;48.258;12.690;2023-01-31T19:51:54;4.30;99.90
19342;DHT22;9807;48.258;12.690;2023-01-31T19:54:24;4.40;99.90
19342;DHT22;9807;48.258;12.690;2023-01-31T19:56:52;4.40;99.90
19342;DHT22;9807;48.258;12.690;2023-01-31T19:59:21;4.40;99.90
19342;DHT22;9807;48.258;12.690;2023-01-31T20:01:55;4.30;99.90
19342;DHT22;9807;48.258;12.690;2023-01-31T20:04:23;4.40;99.90
19342;DHT22;9807;48.258;12.690;2023-01-31T20:07:00;4.40;99.90
19342;DHT22;9807;48.258;12.690;2023-01-31T20:09:29;4.40;99.90
19342;DHT22;9807;48.258;12.690;2023-01-31T20:11:57;4.40;99.90
19342;DHT22;9807;48.258;12.690;2023-01-31T20:14:23;4.40;99.90
19342;DHT22;9807;48.258;12.690;2023-01-31T20:16:54;4.50;99.90
19342;DHT22;9807;48.258;12.690;2023-01-31T20:19:23;4.50;99.90
19342;DHT22;9807;48.258;12.690;2023-01-31T20:21:51;4.50;99.90
19342;DHT22;9807;48.258;12.690;2023-01-31T20:24:22;4.50;99.90
19342;DHT22;9807;48.258;12.690;2023-01-31T20:26:51;4.50;99.90
19342;DHT22;9807;48.258;12.690;2023-01-31T20:29:24;4.30;99.90
19342;DHT22;9807;48.258;12.690;2023-01-31T20:31:50;4.30;99.90
19342;DHT22;9807;48.258;12.690;2023-01-31T20:34:25;4.40;99.90
19342;DHT22;9807;48.258;12.690;2023-01-31T20:36:53;4.20;99.90
19342;DHT22;9807;48.258;12.690;2023-01-31T20:39:32;4.20;99.90
19342;DHT22;9807;48.258;12.690;2023-01-31T20:42:08;4.20;99.90
19342;DHT22;9807;48.258;12.690;2023-01-31T20:44:42;4.30;99.90
19342;DHT22;9807;48.258;12.690;2023-01-31T20:47:11;4.20;99.90
19342;DHT22;9807;48.258;12.690;2023-01-31T20:49:44;4.20;99.90
19342;DHT22;9807;48.258;12.690;2023-01-31T20:52:13;4.20;99.90
19342;DHT22;9807;48.258;12.690;2023-01-31T20:54:39;4.20;99.90
19342;DHT22;9807;48.258;12.690;2023-01-31T20:57:13;4.20;99.90
19342;DHT22;9807;48.258;12.690;2023-01-31T20:59:39;4.20;99.90
19342;DHT22;9807;48.258;12.690;2023-01-31T21:02:09;4.20;99.90
19342;DHT22;9807;48.258;12.690;2023-01-31T21:04:37;4.20;99.90
19342;DHT22;9807;48.258;12.690;2023-01-31T21:07:11;4.20;99.90
19342;DHT22;9807;48.258;12.690;2023-01-31T21:09:40;4.20;99.90
19342;DHT22;9807;48.258;12.690;2023-01-31T21:12:11;4.30;99.90
19342;DHT22;9807;48.258;12.690;2023-01-31T21:14:39;4.30;99.90
19342;DHT22;9807;48.258;12.690;2023-01-31T21:17:17;4.30;99.90
19342;DHT22;9807;48.258;12.690;2023-01-31T21:19:45;4.40;99.90
19342;DHT22;9807;48.258;12.690;2023-01-31T21:22:16;4.40;99.90
19342;DHT22;9807;48.258;12.690;2023-01-31T21:24:45;4.60;99.90
19342;DHT22;9807;48.258;12.690;2023-01-31T21:27:11;4.60;99.90
19342;DHT22;9807;48.258;12.690;2023-01-31T21:29:40;4.60;99.90
19342;DHT22;9807;48.258;12.690;2023-01-31T21:32:06;4.70;99.90
19342;DHT22;9807;48.258;12.690;2023-01-31T21:34:31;4.70;99.90
19342;DHT22;9807;48.258;12.690;2023-01-31T21:37:05;4.80;99.90
19342;DHT22;9807;48.258;12.690;2023-01-31T21:39:43;4.80;99.90
19342;DHT22;9807;48.258;12.690;2023-01-31T21:42:09;4.90;99.90
19342;DHT22;9807;48.258;12.690;2023-01-31T21:44:48;4.80;99.90
19342;DHT22;9807;48.258;12.690;2023-01-31T21:47:16;4.70;99.90
19342;DHT22;9807;48.258;12.690;2023-01-31T21:50:01;4.90;99.90
19342;DHT22;9807;48.258;12.690;2023-01-31T21:52:31;4.90;99.90
19342;DHT22;9807;48.258;12.690;2023-01-31T21:54:57;4.90;99.90
19342;DHT22;9807;48.258;12.690;2023-01-31T21:57:42;5.00;99.90
19342;DHT22;9807;48.258;12.690;2023-01-31T22:00:14;5.00;99.90
19342;DHT22;9807;48.258;12.690;2023-01-31T22:02:40;5.00;99.90
19342;DHT22;9807;48.258;12.690;2023-01-31T22:05:06;5.00;99.90
19342;DHT22;9807;48.258;12.690;2023-01-31T22:07:32;5.00;99.90
19342;DHT22;9807;48.258;12.690;2023-01-31T22:10:04;5.00;99.90
19342;DHT22;9807;48.258;12.690;2023-01-31T22:12:44;5.10;99.90
19342;DHT22;9807;48.258;12.690;2023-01-31T22:15:10;5.10;99.90
19342;DHT22;9807;48.258;12.690;2023-01-31T22:17:46;5.10;99.90
19342;DHT22;9807;48.258;12.690;2023-01-31T22:20:18;5.10;99.90
19342;DHT22;9807;48.258;12.690;2023-01-31T22:22:44;5.10;99.90
19342;DHT22;9807;48.258;12.690;2023-01-31T22:25:13;5.10;99.90
19342;DHT22;9807;48.258;12.690;2023-01-31T22:27:42;5.10;99.90
19342;DHT22;9807;48.258;12.690;2023-01-31T22:30:13;5.10;99.90
19342;DHT22;9807;48.258;12.690;2023-01-31T22:32:39;5.10;99.90
19342;DHT22;9807;48.258;12.690;2023-01-31T22:35:05;5.10;99.90
19342;DHT22;9807;48.258;12.690;2023-01-31T22:37:47;5.10;99.90
19342;DHT22;9807;48.258;12.690;2023-01-31T22:40:15;5.10;99.90
19342;DHT22;9807;48.258;12.690;2023-01-31T22:42:50;5.10;99.90
19342;DHT22;9807;48.258;12.690;2023-01-31T22:45:21;5.10;99.90
19342;DHT22;9807;48.258;12.690;2023-01-31T22:47:49;5.10;99.90
19342;DHT22;9807;48.258;12.690;2023-01-31T22:50:17;5.10;99.90
19342;DHT22;9807;48.258;12.690;2023-01-31T22:52:50;5.10;99.90
19342;DHT22;9807;48.258;12.690;2023-01-31T22:55:20;5.10;99.90
19342;DHT22;9807;48.258;12.690;2023-01-31T22:57:51;5.10;99.90
19342;DHT22;9807;48.258;12.690;2023-01-31T23:00:23;5.20;99.90
19342;DHT22;9807;48.258;12.690;2023-01-31T23:02:49;5.00;99.90
19342;DHT22;9807;48.258;12.690;2023-01-31T23:05:17;5.10;99.90
19342;DHT22;9807;48.258;12.690;2023-01-31T23:07:48;5.00;99.90
19342;DHT22;9807;48.258;12.690;2023-01-31T23:10:24;5.10;99.90
19342;DHT22;9807;48.258;12.690;2023-01-31T23:12:53;5.10;99.90
19342;DHT22;9807;48.258;12.690;2023-01-31T23:15:29;5.00;99.90
19342;DHT22;9807;48.258;12.690;2023-01-31T23:17:54;5.00;99.90
19342;DHT22;9807;48.258;12.690;2023-01-31T23:20:23;4.90;99.90
19342;DHT22;9807;48.258;12.690;2023-01-31T23:22:54;4.90;99.90
19342;DHT22;9807;48.258;12.690;2023-01-31T23:25:26;4.90;99.90
19342;DHT22;9807;48.258;12.690;2023-01-31T23:27:54;4.90;99.90
19342;DHT22;9807;48.258;12.690;2023-01-31T23:30:23;5.00;99.90
19342;DHT22;9807;48.258;12.690;2023-01-31T23:32:51;4.90;99.90
19342;DHT22;9807;48.258;12.690;2023-01-31T23:35:17;4.90;99.90
19342;DHT22;9807;48.258;12.690;2023-01-31T23:37:59;4.90;99.90
19342;DHT22;9807;48.258;12.690;2023-01-31T23:40:27;4.80;99.90
19342;DHT22;9807;48.258;12.690;2023-01-31T23:42:53;4.90;99.90
19342;DHT22;9807;48.258;12.690;2023-01-31T23:45:25;4.90;99.90
19342;DHT22;9807;48.258;12.690;2023-01-31T23:47:50;4.90;99.90
19342;DHT22;9807;48.258;12.690;2023-01-31T23:50:22;4.90;99.90
19342;DHT22;9807;48.258;12.690;2023-01-31T23:52:48;4.90;99.90
19342;DHT22;9807;48.258;12.690;2023-01-31T23:55:16;4.90;99.90
19342;DHT22;9807;48.258;12.690;2023-01-31T23:57:49;5.00;99.90
